Time;durP1;ratioP1;P1;durP2;ratioP2;P2;SDS_P1;SDS_P2;PMS_P1;PMS_P2;Temp;Humidity;BMP_temperature;BMP_pressure;BME280_temperature;BME280_humidity;BME280_pressure;Samples;Min_cycle;Max_cycle;Signal;HPM_P1;HPM_P2
2024/04/02 00:02:01;;;;;;;6.00;4.40;;;23.70;99.90;;;;;;4948400;28;20024;-69
2024/04/02 00:04:29;;;;;;;5.38;4.88;;;23.70;99.90;;;;;;4944722;28;20399;-71
2024/04/02 00:06:56;;;;;;;6.60;4.38;;;23.70;99.90;;;;;;4938616;28;20040;-70
2024/04/02 00:09:23;;;;;;;6.80;4.55;;;23.80;99.90;;;;;;4945376;28;20066;-70
2024/04/02 00:11:51;;;;;;;8.05;4.85;;;23.90;99.90;;;;;;4949201;28;20020;-70
2024/04/02 00:14:19;;;;;;;8.05;4.57;;;24.00;99.90;;;;;;4948192;28;20042;-70
2024/04/02 00:16:46;;;;;;;8.30;4.13;;;24.00;99.90;;;;;;4935795;28;20053;-70
2024/04/02 00:19:14;;;;;;;5.38;4.18;;;24.10;99.90;;;;;;4935992;28;20032;-70
2024/04/02 00:21:42;;;;;;;6.13;4.13;;;24.10;99.90;;;;;;4947517;28;20023;-70
2024/04/02 00:24:09;;;;;;;5.18;3.72;;;24.10;99.90;;;;;;4940662;29;20039;-70
2024/04/02 00:26:36;;;;;;;4.65;3.42;;;24.20;99.90;;;;;;4933506;28;20028;-70
2024/04/02 00:29:04;;;;;;;6.65;3.95;;;24.20;99.90;;;;;;4930959;29;20035;-70
2024/04/02 00:31:31;;;;;;;8.52;4.18;;;24.20;99.90;;;;;;4937965;29;20038;-70
2024/04/02 00:33:58;;;;;;;4.22;3.67;;;24.20;99.90;;;;;;4942348;28;20027;-70
2024/04/02 00:36:26;;;;;;;4.60;4.18;;;24.10;99.90;;;;;;4949873;28;20027;-69
2024/04/02 00:38:53;;;;;;;6.25;4.32;;;24.10;99.90;;;;;;4950448;28;20434;-71
2024/04/02 00:41:20;;;;;;;9.93;5.05;;;24.10;99.90;;;;;;4949461;28;20043;-69
2024/04/02 00:43:48;;;;;;;6.70;4.50;;;24.00;99.90;;;;;;4941618;29;20085;-71
2024/04/02 00:46:15;;;;;;;5.80;4.75;;;23.90;99.90;;;;;;4949644;28;20032;-71
2024/04/02 00:48:43;;;;;;;6.22;4.45;;;23.80;99.90;;;;;;4948006;28;20031;-72
2024/04/02 00:51:10;;;;;;;5.35;4.53;;;23.80;99.90;;;;;;4939272;29;20199;-71
2024/04/02 00:53:38;;;;;;;8.15;5.10;;;23.70;99.90;;;;;;4935346;29;20034;-71
2024/04/02 00:56:05;;;;;;;6.60;5.22;;;23.60;99.90;;;;;;4950069;28;20482;-70
2024/04/02 00:58:33;;;;;;;5.97;4.97;;;23.50;99.90;;;;;;4949853;28;20031;-71
2024/04/02 01:01:02;;;;;;;5.95;5.35;;;23.30;99.90;;;;;;4941587;28;20031;-72
2024/04/02 01:03:29;;;;;;;6.03;4.95;;;23.20;99.90;;;;;;4950949;28;20023;-72
2024/04/02 01:05:57;;;;;;;6.53;5.43;;;23.10;99.90;;;;;;4941671;29;20027;-71
2024/04/02 01:08:26;;;;;;;6.68;5.20;;;22.90;99.90;;;;;;4952530;29;20078;-72
2024/04/02 01:10:54;;;;;;;8.10;5.50;;;22.80;99.90;;;;;;4937232;28;20448;-71
2024/04/02 01:13:22;;;;;;;6.32;4.68;;;22.70;99.90;;;;;;4937099;29;20089;-72
2024/04/02 01:15:49;;;;;;;7.72;5.32;;;22.60;99.90;;;;;;4940905;28;20044;-70
2024/04/02 01:18:17;;;;;;;5.65;5.10;;;22.50;99.90;;;;;;4952793;28;20085;-71
2024/04/02 01:20:44;;;;;;;5.47;4.60;;;22.40;99.90;;;;;;4943333;28;20130;-72
2024/04/02 01:23:11;;;;;;;9.57;5.40;;;22.30;99.90;;;;;;4949235;28;20024;-72
2024/04/02 01:25:45;;;;;;;5.43;4.72;;;22.20;99.90;;;;;;4916032;28;21041;-71
2024/04/02 01:28:12;;;;;;;6.00;4.35;;;22.20;99.90;;;;;;4947306;28;20043;-70
2024/04/02 01:30:39;;;;;;;5.35;4.63;;;22.10;99.90;;;;;;4933811;29;20023;-69
2024/04/02 01:33:07;;;;;;;7.53;4.20;;;22.10;99.90;;;;;;4933503;29;20023;-71
2024/04/02 01:35:34;;;;;;;7.47;3.83;;;22.10;99.90;;;;;;4932641;29;20020;-74
2024/04/02 01:38:01;;;;;;;6.38;4.57;;;22.00;99.90;;;;;;4952538;28;20019;-70
2024/04/02 01:40:29;;;;;;;7.07;4.20;;;21.90;99.90;;;;;;4950596;28;20034;-70
2024/04/02 01:42:56;;;;;;;6.05;4.40;;;21.80;99.90;;;;;;4945312;29;20067;-76
2024/04/02 01:45:23;;;;;;;5.78;4.50;;;21.80;99.90;;;;;;4938160;28;20020;-73
2024/04/02 01:47:51;;;;;;;7.90;5.35;;;21.70;99.90;;;;;;4952364;28;20046;-81
2024/04/02 01:50:18;;;;;;;9.23;4.80;;;21.60;99.90;;;;;;4947267;28;20048;-79
2024/04/02 01:52:45;;;;;;;8.07;4.68;;;21.60;99.90;;;;;;4932440;29;20028;-68
2024/04/02 01:55:13;;;;;;;7.35;4.68;;;21.50;99.90;;;;;;4934572;29;20059;-71
2024/04/02 01:57:40;;;;;;;6.82;4.78;;;21.50;99.90;;;;;;4944780;28;20107;-70
2024/04/02 02:00:08;;;;;;;6.05;4.57;;;21.50;99.90;;;;;;4934751;29;20024;-72
2024/04/02 02:02:36;;;;;;;5.05;4.63;;;21.50;99.90;;;;;;4945999;28;20098;-75
2024/04/02 02:05:03;;;;;;;6.10;4.45;;;21.50;99.90;;;;;;4932954;29;20055;-70
2024/04/02 02:07:31;;;;;;;6.00;5.07;;;21.50;99.90;;;;;;4947165;28;20422;-70
2024/04/02 02:09:58;;;;;;;7.10;4.80;;;21.60;99.90;;;;;;4937242;28;20023;-74
2024/04/02 02:12:26;;;;;;;8.30;6.80;;;21.50;99.90;;;;;;4931846;29;20046;-68
2024/04/02 02:14:53;;;;;;;8.43;5.00;;;21.60;99.90;;;;;;4930860;29;20020;-70
2024/04/02 02:17:20;;;;;;;6.03;5.00;;;21.60;99.90;;;;;;4951274;29;20483;-72
2024/04/02 02:19:48;;;;;;;8.05;5.18;;;21.60;99.90;;;;;;4951463;28;20036;-70
2024/04/02 02:22:15;;;;;;;5.88;4.55;;;21.80;99.90;;;;;;4946074;28;20047;-71
2024/04/02 02:24:42;;;;;;;6.97;5.07;;;21.70;99.90;;;;;;4951601;28;20028;-72
2024/04/02 02:27:10;;;;;;;8.60;6.35;;;21.70;99.90;;;;;;4951593;28;20043;-70
2024/04/02 02:29:37;;;;;;;5.88;4.57;;;21.80;99.90;;;;;;4950857;28;20023;-71
2024/04/02 02:32:05;;;;;;;7.38;5.10;;;21.80;99.90;;;;;;4944279;28;20031;-71
2024/04/02 02:34:32;;;;;;;7.25;5.47;;;21.90;99.90;;;;;;4935786;29;20083;-70
2024/04/02 02:36:59;;;;;;;7.30;4.57;;;21.90;99.90;;;;;;4944199;29;20065;-72
2024/04/02 02:39:28;;;;;;;6.43;5.15;;;22.00;99.90;;;;;;4932222;29;20024;-68
2024/04/02 02:41:55;;;;;;;6.63;4.80;;;22.10;99.90;;;;;;4931543;29;20468;-72
2024/04/02 02:44:22;;;;;;;5.68;4.95;;;22.00;99.90;;;;;;4942113;29;20085;-70
2024/04/02 02:46:50;;;;;;;6.32;5.22;;;22.00;99.90;;;;;;4950982;28;20110;-69
2024/04/02 02:49:17;;;;;;;5.82;4.55;;;22.10;99.90;;;;;;4950933;28;20023;-70
2024/04/02 02:51:44;;;;;;;6.50;4.63;;;22.20;99.90;;;;;;4951249;28;20035;-70
2024/04/02 02:54:12;;;;;;;7.25;5.00;;;22.10;99.90;;;;;;4942618;28;20024;-72
2024/04/02 02:56:40;;;;;;;6.43;4.90;;;22.20;99.90;;;;;;4946088;29;20526;-73
2024/04/02 02:59:08;;;;;;;5.70;4.40;;;22.30;99.90;;;;;;4951393;28;20023;-70
2024/04/02 03:01:35;;;;;;;6.38;4.43;;;22.40;99.90;;;;;;4943999;28;20047;-68
2024/04/02 03:04:03;;;;;;;4.60;3.97;;;22.40;99.90;;;;;;4932434;29;20115;-70
2024/04/02 03:06:30;;;;;;;6.05;4.10;;;22.50;99.90;;;;;;4943905;29;20027;-69
2024/04/02 03:08:58;;;;;;;9.23;5.22;;;22.50;99.90;;;;;;4951014;28;20081;-69
2024/04/02 03:11:25;;;;;;;8.05;4.68;;;22.50;99.90;;;;;;4935811;28;20024;-69
2024/04/02 03:13:53;;;;;;;4.85;3.92;;;22.40;99.90;;;;;;4931895;29;20099;-69
2024/04/02 03:16:23;;;;;;;7.57;4.80;;;22.40;99.90;;;;;;4936874;29;20032;-68
2024/04/02 03:18:50;;;;;;;4.97;3.85;;;22.30;99.90;;;;;;4941282;29;20028;-72
2024/04/02 03:21:18;;;;;;;4.32;3.92;;;22.30;99.90;;;;;;4940705;28;20381;-70
2024/04/02 03:23:47;;;;;;;4.72;4.22;;;22.30;99.90;;;;;;4939147;29;20038;-70
2024/04/02 03:26:14;;;;;;;6.65;4.25;;;22.20;99.90;;;;;;4950587;28;20019;-69
2024/04/02 03:28:42;;;;;;;9.73;4.72;;;22.20;99.90;;;;;;4950307;28;20051;-69
2024/04/02 03:31:09;;;;;;;6.85;5.72;;;22.20;99.90;;;;;;4949711;28;20130;-69
2024/04/02 03:33:36;;;;;;;5.28;4.18;;;22.20;99.90;;;;;;4939639;29;20514;-70
2024/04/02 03:36:08;;;;;;;6.47;4.00;;;22.20;99.90;;;;;;4944876;28;20051;-71
2024/04/02 03:38:36;;;;;;;4.95;3.70;;;22.20;99.90;;;;;;4941799;28;20123;-70
2024/04/02 03:41:12;;;;;;;13.20;4.78;;;22.20;99.90;;;;;;4930646;29;20115;-68
2024/04/02 03:43:43;;;;;;;7.63;4.30;;;22.20;99.90;;;;;;4937087;29;20027;-69
2024/04/02 03:46:12;;;;;;;6.88;3.63;;;22.30;99.90;;;;;;4940047;28;20484;-69
2024/04/02 03:48:40;;;;;;;6.18;3.90;;;22.30;99.90;;;;;;4930693;29;20500;-70
2024/04/02 03:51:07;;;;;;;6.72;3.72;;;22.50;99.90;;;;;;4938632;29;20177;-71
2024/04/02 03:53:34;;;;;;;5.38;3.33;;;22.80;99.90;;;;;;4949780;28;20073;-71
2024/04/02 03:56:04;;;;;;;5.90;3.10;;;23.00;99.90;;;;;;4954035;28;20066;-68
2024/04/02 03:58:32;;;;;;;3.65;3.15;;;23.20;99.90;;;;;;4940098;29;20020;-70
2024/04/02 04:00:59;;;;;;;5.13;3.20;;;23.40;99.90;;;;;;4938313;28;20044;-72
2024/04/02 04:03:27;;;;;;;3.20;2.33;;;23.60;99.90;;;;;;4939085;28;20548;-67
2024/04/02 04:06:04;;;;;;;3.33;2.90;;;23.90;99.90;;;;;;4948638;28;20075;-71
2024/04/02 04:08:37;;;;;;;3.38;2.50;;;24.30;99.90;;;;;;4952686;28;20480;-68
2024/04/02 04:11:05;;;;;;;3.38;2.35;;;24.60;99.90;;;;;;4964558;28;20053;-71
2024/04/02 04:13:32;;;;;;;2.50;2.20;;;24.90;99.90;;;;;;4952957;28;20440;-68
2024/04/02 04:16:04;;;;;;;5.20;2.00;;;24.80;99.90;;;;;;4947612;28;20027;-70
2024/04/02 04:18:32;;;;;;;3.50;2.17;;;24.80;99.90;;;;;;4935974;28;20029;-69
2024/04/02 04:21:01;;;;;;;4.55;2.15;;;25.10;99.90;;;;;;4956782;28;20458;-71
2024/04/02 04:23:29;;;;;;;4.85;2.10;;;25.70;99.90;;;;;;4939034;28;20111;-70
2024/04/02 04:26:02;;;;;;;4.00;2.13;;;26.70;99.90;;;;;;4940481;29;20020;-71
2024/04/02 04:28:30;;;;;;;4.13;1.52;;;27.20;99.90;;;;;;4946227;29;20110;-69
2024/04/02 04:31:03;;;;;;;3.72;2.00;;;27.80;99.90;;;;;;4928860;28;20082;-70
2024/04/02 04:33:31;;;;;;;2.17;1.70;;;28.10;99.90;;;;;;4930525;29;20102;-69
2024/04/02 04:35:59;;;;;;;2.75;1.70;;;27.90;99.90;;;;;;4940615;29;20410;-69
2024/04/02 04:38:30;;;;;;;2.55;1.40;;;27.80;99.90;;;;;;4952681;28;20554;-69
2024/04/02 04:40:58;;;;;;;4.93;1.35;;;27.50;99.90;;;;;;4953184;28;20082;-69
2024/04/02 04:43:25;;;;;;;2.17;1.42;;;28.00;99.90;;;;;;4936234;28;20038;-70
2024/04/02 04:46:06;;;;;;;2.60;1.67;;;29.60;99.90;;;;;;4935247;29;20023;-71
2024/04/02 04:48:34;;;;;;;1.90;1.30;;;30.90;99.90;;;;;;4950348;28;20043;-70
2024/04/02 04:51:06;;;;;;;2.10;1.15;;;31.80;99.90;;;;;;4948194;29;20125;-69
2024/04/02 04:53:34;;;;;;;2.15;1.23;;;32.50;99.90;;;;;;4948413;28;20027;-69
2024/04/02 04:56:06;;;;;;;1.67;1.35;;;32.00;99.90;;;;;;4950549;29;20027;-70
2024/04/02 04:58:35;;;;;;;2.13;1.08;;;32.90;99.90;;;;;;4951607;28;20037;-72
2024/04/02 05:01:03;;;;;;;2.55;0.85;;;34.50;97.40;;;;;;4937313;28;20086;-68
2024/04/02 05:03:32;;;;;;;1.80;1.00;;;35.80;95.00;;;;;;4949467;29;20054;-72
2024/04/02 05:06:06;;;;;;;1.58;0.70;;;36.90;92.80;;;;;;4951187;28;20167;-67
2024/04/02 05:08:35;;;;;;;2.47;0.80;;;38.00;90.40;;;;;;4942071;28;20069;-69
2024/04/02 05:11:05;;;;;;;0.75;0.60;;;38.30;89.10;;;;;;4935071;29;20038;-73
2024/04/02 05:13:33;;;;;;;3.78;0.80;;;38.40;86.80;;;;;;4951006;28;20041;-71
2024/04/02 05:16:02;;;;;;;1.23;0.70;;;38.40;85.00;;;;;;4951871;28;20102;-71
2024/04/02 05:18:29;;;;;;;2.50;0.80;;;38.60;86.60;;;;;;4950392;28;20074;-71
2024/04/02 05:20:57;;;;;;;2.55;0.80;;;38.30;83.90;;;;;;4949800;28;20019;-70
2024/04/02 05:23:26;;;;;;;1.88;0.70;;;38.80;83.70;;;;;;4946774;29;20063;-70
2024/04/02 05:26:00;;;;;;;0.95;0.68;;;38.90;84.00;;;;;;4944886;28;20118;-68
2024/04/02 05:28:28;;;;;;;1.20;0.70;;;39.00;82.30;;;;;;4951816;28;20039;-69
2024/04/02 05:30:55;;;;;;;1.20;0.73;;;39.40;81.30;;;;;;4940256;28;20047;-71
2024/04/02 05:33:23;;;;;;;2.25;0.60;;;39.50;82.10;;;;;;4936365;29;20034;-68
2024/04/02 05:35:50;;;;;;;1.85;0.90;;;39.80;80.70;;;;;;4949711;28;20553;-68
2024/04/02 05:38:18;;;;;;;2.08;0.60;;;39.80;79.40;;;;;;4942614;28;20036;-71
2024/04/02 05:40:45;;;;;;;1.40;0.75;;;40.10;78.20;;;;;;4932743;29;20036;-69
2024/04/02 05:43:13;;;;;;;1.70;0.60;;;39.90;77.70;;;;;;4949063;29;20387;-69
2024/04/02 05:45:40;;;;;;;3.22;0.88;;;39.90;78.80;;;;;;4951388;28;20697;-71
2024/04/02 05:48:08;;;;;;;2.53;0.60;;;39.70;78.50;;;;;;4949795;28;20392;-68
2024/04/02 05:50:35;;;;;;;1.52;0.82;;;39.70;77.10;;;;;;4946895;28;20439;-69
2024/04/02 05:53:02;;;;;;;1.27;0.70;;;39.70;77.30;;;;;;4947151;28;20032;-69
2024/04/02 05:55:30;;;;;;;1.88;0.70;;;40.00;78.40;;;;;;4938738;28;20407;-70
2024/04/02 05:57:57;;;;;;;1.10;0.50;;;39.70;77.90;;;;;;4941722;29;20028;-69
2024/04/02 06:00:28;;;;;;;1.52;0.50;;;40.00;76.40;;;;;;4945031;29;20028;-70
2024/04/02 06:02:55;;;;;;;1.30;0.77;;;40.20;75.20;;;;;;4940398;28;20035;-68
2024/04/02 06:05:23;;;;;;;2.75;0.80;;;40.30;75.00;;;;;;4946213;29;20027;-68
2024/04/02 06:07:54;;;;;;;1.05;0.60;;;40.20;74.80;;;;;;4937031;28;20080;-70
2024/04/02 06:10:21;;;;;;;2.38;0.80;;;39.00;76.50;;;;;;4933931;29;20019;-69
2024/04/02 06:12:49;;;;;;;3.53;1.05;;;38.60;77.80;;;;;;4933244;29;20024;-69
2024/04/02 06:15:17;;;;;;;1.35;0.60;;;38.90;78.10;;;;;;4934445;29;20053;-70
2024/04/02 06:17:44;;;;;;;2.17;0.75;;;39.60;76.50;;;;;;4935077;28;20032;-68
2024/04/02 06:20:11;;;;;;;1.27;0.80;;;40.00;75.90;;;;;;4937662;29;20023;-68
2024/04/02 06:22:39;;;;;;;1.77;0.77;;;39.50;76.20;;;;;;4932571;29;20435;-69
2024/04/02 06:25:06;;;;;;;1.13;0.75;;;39.30;75.80;;;;;;4932843;29;20491;-70
2024/04/02 06:27:34;;;;;;;1.23;0.90;;;39.30;77.00;;;;;;4932584;29;20050;-69
2024/04/02 06:30:01;;;;;;;2.60;0.70;;;39.50;75.80;;;;;;4934793;29;20065;-70
2024/04/02 06:32:29;;;;;;;2.17;0.90;;;38.80;76.20;;;;;;4941240;28;20364;-68
2024/04/02 06:34:56;;;;;;;3.67;0.90;;;38.90;77.40;;;;;;4950673;28;20110;-69
2024/04/02 06:37:23;;;;;;;4.10;1.42;;;38.90;76.80;;;;;;4932944;28;20078;-70
2024/04/02 06:39:52;;;;;;;1.20;0.80;;;38.70;76.90;;;;;;4947309;28;20038;-68
2024/04/02 06:42:19;;;;;;;1.52;0.77;;;38.10;77.60;;;;;;4940109;28;20035;-70
2024/04/02 06:44:47;;;;;;;1.17;0.60;;;37.40;77.50;;;;;;4932267;29;20480;-69
2024/04/02 06:47:14;;;;;;;1.23;0.80;;;36.70;78.20;;;;;;4931509;29;20538;-68
2024/04/02 06:49:42;;;;;;;2.03;1.00;;;36.60;78.50;;;;;;4932521;28;20460;-69
2024/04/02 06:52:09;;;;;;;3.13;1.00;;;36.10;78.20;;;;;;4954363;28;20030;-68
2024/04/02 06:54:37;;;;;;;3.25;1.00;;;35.70;78.70;;;;;;4951489;28;20353;-71
2024/04/02 06:57:04;;;;;;;4.93;0.85;;;35.20;79.40;;;;;;4949485;28;20023;-70
2024/04/02 06:59:32;;;;;;;1.50;0.90;;;34.40;81.00;;;;;;4948089;28;20034;-70
2024/04/02 07:01:59;;;;;;;2.65;1.08;;;33.20;83.50;;;;;;4946982;28;20506;-71
2024/04/02 07:04:29;;;;;;;3.42;1.25;;;32.10;86.00;;;;;;4928576;29;20114;-71
2024/04/02 07:06:56;;;;;;;1.65;1.00;;;31.20;89.50;;;;;;4931253;29;20027;-71
2024/04/02 07:09:23;;;;;;;2.55;1.00;;;30.50;90.80;;;;;;4931204;29;20038;-71
2024/04/02 07:11:51;;;;;;;2.67;1.70;;;29.80;91.50;;;;;;4935579;29;20069;-71
2024/04/02 07:14:18;;;;;;;2.05;1.30;;;29.20;92.20;;;;;;4944341;29;20066;-70
2024/04/02 07:16:45;;;;;;;2.25;1.20;;;28.60;91.50;;;;;;4931866;29;20024;-71
2024/04/02 07:19:13;;;;;;;3.65;1.50;;;28.20;91.40;;;;;;4932074;29;20063;-70
2024/04/02 07:21:40;;;;;;;5.22;1.40;;;27.80;88.10;;;;;;4932304;29;20058;-70
2024/04/02 07:24:08;;;;;;;4.22;1.40;;;27.50;82.50;;;;;;4931934;29;20066;-67
2024/04/02 07:26:35;;;;;;;4.65;1.70;;;27.30;81.70;;;;;;4931732;29;20032;-69
2024/04/02 07:29:02;;;;;;;4.38;1.27;;;27.10;77.90;;;;;;4937271;29;20357;-67
2024/04/02 07:31:30;;;;;;;4.13;1.40;;;27.00;75.20;;;;;;4947060;29;20016;-68
2024/04/02 07:33:57;;;;;;;2.38;1.33;;;26.80;75.50;;;;;;4950806;28;20027;-68
2024/04/02 07:36:24;;;;;;;4.18;1.30;;;26.70;75.60;;;;;;4949151;28;20016;-67
2024/04/02 07:38:52;;;;;;;4.32;1.63;;;26.60;76.00;;;;;;4943907;28;20496;-68
2024/04/02 07:41:19;;;;;;;4.07;2.08;;;26.40;75.30;;;;;;4941232;29;20031;-66
2024/04/02 07:43:47;;;;;;;3.22;1.73;;;26.30;76.50;;;;;;4942269;28;20412;-69
2024/04/02 07:46:14;;;;;;;9.18;2.00;;;26.20;74.20;;;;;;4939948;28;20031;-68
2024/04/02 07:48:42;;;;;;;3.33;1.98;;;26.20;75.80;;;;;;4939231;29;20115;-68
2024/04/02 07:51:12;;;;;;;4.40;1.83;;;26.10;74.70;;;;;;4940519;28;20040;-69
2024/04/02 07:53:39;;;;;;;3.08;1.80;;;26.00;74.70;;;;;;4941432;29;20030;-71
2024/04/02 07:56:07;;;;;;;3.95;1.70;;;26.00;75.00;;;;;;4939949;29;20027;-69
2024/04/02 07:58:34;;;;;;;2.78;1.42;;;25.90;76.10;;;;;;4939802;29;20081;-69
2024/04/02 08:01:02;;;;;;;2.83;1.90;;;25.90;75.40;;;;;;4939435;29;20024;-69
2024/04/02 08:03:29;;;;;;;3.40;1.90;;;25.80;78.10;;;;;;4941108;28;20047;-69
2024/04/02 08:06:00;;;;;;;5.45;1.90;;;25.70;77.40;;;;;;4941305;28;20016;-69
2024/04/02 08:08:28;;;;;;;3.00;1.80;;;25.60;78.30;;;;;;4940300;29;20067;-69
2024/04/02 08:10:55;;;;;;;4.30;1.92;;;25.50;78.20;;;;;;4943865;28;20031;-71
2024/04/02 08:13:22;;;;;;;4.03;2.20;;;25.40;77.40;;;;;;4942928;29;20439;-66
2024/04/02 08:15:50;;;;;;;4.00;1.67;;;25.30;78.00;;;;;;4943191;28;20020;-67
2024/04/02 08:18:17;;;;;;;3.22;1.80;;;25.20;78.70;;;;;;4942836;28;20123;-69
2024/04/02 08:20:45;;;;;;;4.15;2.00;;;25.10;78.40;;;;;;4943899;28;20023;-70
2024/04/02 08:23:12;;;;;;;4.22;1.88;;;25.00;78.40;;;;;;4945207;28;20440;-73
2024/04/02 08:25:41;;;;;;;2.95;1.80;;;25.00;77.80;;;;;;4953335;29;20055;-68
2024/04/02 08:28:08;;;;;;;4.32;2.08;;;25.00;78.40;;;;;;4940509;28;20032;-69
2024/04/02 08:30:36;;;;;;;3.42;1.88;;;24.90;77.70;;;;;;4938697;29;20429;-68
2024/04/02 08:33:03;;;;;;;3.88;2.05;;;24.90;77.10;;;;;;4944783;29;20403;-69
2024/04/02 08:35:31;;;;;;;5.53;3.10;;;24.80;78.00;;;;;;4952366;28;20023;-71
2024/04/02 08:37:58;;;;;;;6.13;2.25;;;24.80;76.50;;;;;;4943218;28;20031;-66
2024/04/02 08:40:32;;;;;;;4.45;2.40;;;24.80;76.60;;;;;;4934789;29;20078;-70
2024/04/02 08:43:06;;;;;;;7.45;2.72;;;24.70;76.60;;;;;;4939144;29;20031;-68
2024/04/02 08:45:34;;;;;;;8.77;3.20;;;24.60;76.80;;;;;;4941507;29;20019;-67
2024/04/02 08:48:03;;;;;;;4.68;2.50;;;24.60;76.40;;;;;;4938278;29;20070;-68
2024/04/02 08:50:31;;;;;;;5.25;2.22;;;24.50;76.50;;;;;;4953350;28;20415;-67
2024/04/02 08:52:58;;;;;;;5.43;2.00;;;24.40;77.00;;;;;;4948986;28;20476;-68
2024/04/02 08:55:26;;;;;;;4.80;2.10;;;24.30;77.50;;;;;;4942480;29;20024;-69
2024/04/02 08:57:54;;;;;;;4.30;2.53;;;24.20;77.10;;;;;;4943443;28;20486;-69
2024/04/02 09:00:24;;;;;;;3.95;2.08;;;24.10;76.40;;;;;;4938712;29;20031;-67
2024/04/02 09:02:54;;;;;;;4.10;1.70;;;24.10;77.10;;;;;;4942484;28;20110;-70
2024/04/02 09:05:22;;;;;;;3.88;1.27;;;23.90;77.90;;;;;;4943375;29;20023;-67
2024/04/02 09:07:50;;;;;;;3.53;1.40;;;23.90;75.30;;;;;;4943724;28;20519;-72
2024/04/02 09:10:21;;;;;;;2.85;1.20;;;23.90;75.50;;;;;;4942671;29;20016;-68
2024/04/02 09:12:49;;;;;;;2.85;1.23;;;23.80;74.70;;;;;;4942591;28;20039;-69
2024/04/02 09:15:17;;;;;;;2.60;1.50;;;23.90;74.80;;;;;;4941524;28;20038;-67
2024/04/02 09:17:45;;;;;;;3.28;1.10;;;23.80;74.90;;;;;;4943019;28;20487;-71
2024/04/02 09:20:13;;;;;;;3.50;1.27;;;23.80;74.40;;;;;;4940676;29;20109;-69
2024/04/02 09:22:41;;;;;;;2.63;1.13;;;23.80;74.60;;;;;;4951327;28;20027;-68
2024/04/02 09:25:12;;;;;;;3.90;1.23;;;23.70;75.60;;;;;;4938890;28;20067;-68
2024/04/02 09:27:40;;;;;;;1.83;1.00;;;23.60;74.20;;;;;;4943033;29;20035;-71
2024/04/02 09:30:08;;;;;;;3.38;1.08;;;23.60;74.90;;;;;;4950059;28;20034;-71
2024/04/02 09:32:39;;;;;;;1.85;1.10;;;23.50;74.30;;;;;;4939015;29;20059;-71
2024/04/02 09:35:16;;;;;;;2.47;1.00;;;23.50;74.70;;;;;;4930571;29;20559;-69
2024/04/02 09:37:50;;;;;;;1.75;1.00;;;23.40;75.30;;;;;;4940552;29;20024;-71
2024/04/02 09:40:19;;;;;;;3.88;1.23;;;23.30;75.20;;;;;;4945038;29;20492;-71
2024/04/02 09:42:49;;;;;;;4.90;1.08;;;23.30;76.30;;;;;;4949446;29;20484;-70
2024/04/02 09:45:18;;;;;;;1.58;0.90;;;23.20;75.20;;;;;;4947469;28;20086;-69
2024/04/02 09:47:50;;;;;;;2.83;0.90;;;23.10;75.50;;;;;;4952356;28;20122;-70
2024/04/02 09:50:18;;;;;;;2.30;1.25;;;23.10;75.70;;;;;;4943164;29;20039;-70
2024/04/02 09:52:46;;;;;;;1.70;1.02;;;23.10;76.70;;;;;;4950542;28;20130;-72
2024/04/02 09:55:15;;;;;;;2.25;0.90;;;23.00;76.10;;;;;;4939768;29;20023;-70
2024/04/02 09:57:43;;;;;;;2.53;1.20;;;23.00;76.50;;;;;;4945043;28;20024;-68
2024/04/02 10:00:11;;;;;;;1.77;1.10;;;22.90;76.70;;;;;;4943422;28;20038;-69
2024/04/02 10:02:40;;;;;;;1.80;1.08;;;22.90;77.10;;;;;;4944022;28;20019;-68
2024/04/02 10:05:10;;;;;;;4.55;1.08;;;22.80;77.00;;;;;;4948548;28;20027;-68
2024/04/02 10:07:41;;;;;;;3.15;1.08;;;22.80;77.40;;;;;;4941663;28;20035;-71
2024/04/02 10:10:08;;;;;;;2.35;1.00;;;22.70;78.50;;;;;;4941439;28;20549;-67
2024/04/02 10:12:37;;;;;;;3.53;1.40;;;22.60;79.20;;;;;;4941270;29;20031;-68
2024/04/02 10:15:11;;;;;;;3.45;1.63;;;22.60;78.70;;;;;;4942336;28;20035;-72
2024/04/02 10:17:38;;;;;;;3.55;1.35;;;22.50;79.60;;;;;;4929327;29;20031;-69
2024/04/02 10:20:25;;;;;;;2.58;1.20;;;22.40;80.60;;;;;;4943555;29;20020;-72
2024/04/02 10:22:59;;;;;;;2.83;1.17;;;22.30;80.90;;;;;;4951371;28;20490;-70
2024/04/02 10:25:31;;;;;;;4.57;1.20;;;22.30;79.80;;;;;;4937069;29;20489;-68
2024/04/02 10:28:03;;;;;;;2.65;1.00;;;22.20;79.60;;;;;;4944650;29;20487;-68
2024/04/02 10:30:32;;;;;;;1.63;0.90;;;22.30;79.80;;;;;;4951250;28;20030;-66
2024/04/02 10:33:00;;;;;;;2.95;1.42;;;22.30;79.60;;;;;;4940650;29;20377;-66
2024/04/02 10:35:31;;;;;;;1.48;0.85;;;22.20;80.20;;;;;;4942548;29;20498;-71
2024/04/02 10:37:59;;;;;;;2.85;1.10;;;22.20;80.30;;;;;;4949670;29;20118;-69
2024/04/02 10:40:27;;;;;;;3.03;1.33;;;22.10;80.90;;;;;;4951529;28;20027;-67
2024/04/02 10:42:55;;;;;;;2.55;1.00;;;22.10;81.60;;;;;;4952021;28;20418;-67
2024/04/02 10:45:22;;;;;;;1.85;1.23;;;22.10;81.10;;;;;;4939369;28;20032;-71
2024/04/02 10:47:52;;;;;;;5.20;1.73;;;21.90;81.30;;;;;;4939882;29;20167;-67
2024/04/02 10:50:21;;;;;;;2.47;1.52;;;22.00;82.30;;;;;;4941837;28;20094;-67
2024/04/02 10:52:49;;;;;;;2.28;1.25;;;21.90;82.20;;;;;;4935097;29;20024;-67
2024/04/02 10:55:17;;;;;;;3.25;1.27;;;21.90;81.70;;;;;;4951872;28;20031;-68
2024/04/02 10:57:44;;;;;;;4.03;1.50;;;21.90;82.20;;;;;;4942080;28;20024;-69
2024/04/02 11:00:14;;;;;;;8.10;2.35;;;21.80;82.10;;;;;;4941455;29;20110;-68
2024/04/02 11:02:44;;;;;;;3.42;1.38;;;21.80;81.90;;;;;;4942811;29;20462;-68
2024/04/02 11:05:16;;;;;;;2.83;1.38;;;21.80;82.90;;;;;;4943560;28;20024;-67
2024/04/02 11:07:47;;;;;;;3.00;1.35;;;21.80;82.30;;;;;;4941072;28;20518;-70
2024/04/02 11:10:15;;;;;;;2.60;1.30;;;21.70;82.90;;;;;;4946879;28;20036;-69
2024/04/02 11:12:43;;;;;;;3.13;1.33;;;21.70;83.40;;;;;;4932793;28;20031;-68
2024/04/02 11:15:11;;;;;;;4.82;1.92;;;21.60;83.40;;;;;;4942926;28;20026;-67
2024/04/02 11:17:40;;;;;;;4.55;1.50;;;21.60;83.30;;;;;;4932642;28;20028;-68
2024/04/02 11:20:11;;;;;;;2.28;1.25;;;21.50;84.20;;;;;;4931245;29;20501;-70
2024/04/02 11:25:26;;;;;;;3.40;1.30;;;21.50;84.20;;;;;;4933690;29;20031;-69
2024/04/02 11:28:04;;;;;;;4.85;1.30;;;21.40;83.50;;;;;;4961058;28;20062;-69
2024/04/02 11:30:31;;;;;;;3.25;1.23;;;21.40;83.60;;;;;;4944274;28;20020;-70
2024/04/02 11:32:59;;;;;;;4.90;1.40;;;21.40;84.20;;;;;;4940353;28;20019;-70
2024/04/02 11:35:29;;;;;;;3.45;1.40;;;21.30;83.70;;;;;;4941667;29;20019;-68
2024/04/02 11:37:56;;;;;;;3.35;1.30;;;21.30;84.20;;;;;;4941263;29;20042;-67
2024/04/02 11:40:23;;;;;;;3.70;1.38;;;21.30;83.70;;;;;;4941517;29;20034;-71
2024/04/02 11:42:51;;;;;;;2.30;1.27;;;21.20;83.20;;;;;;4939477;29;20024;-70
2024/04/02 11:45:21;;;;;;;2.78;1.50;;;21.30;83.70;;;;;;4939085;28;20023;-71
2024/04/02 11:47:48;;;;;;;4.15;1.45;;;21.30;83.70;;;;;;4938944;29;20055;-70
2024/04/02 11:50:18;;;;;;;4.80;1.90;;;21.30;83.20;;;;;;4940183;28;20050;-71
2024/04/02 11:52:46;;;;;;;3.58;1.45;;;21.20;83.50;;;;;;4941357;29;20023;-68
2024/04/02 11:55:13;;;;;;;4.10;1.88;;;21.20;83.40;;;;;;4939850;29;20027;-69
2024/04/02 12:00:26;;;;;;;3.15;1.25;;;21.10;83.80;;;;;;4940632;29;20441;-68
2024/04/02 12:02:53;;;;;;;1.98;1.30;;;21.10;83.70;;;;;;4939936;29;20123;-68
2024/04/02 12:05:20;;;;;;;3.65;1.30;;;21.10;83.80;;;;;;4938328;28;20467;-68
2024/04/02 12:07:48;;;;;;;3.92;1.15;;;21.00;84.10;;;;;;4944863;28;20038;-71
2024/04/02 12:10:15;;;;;;;4.13;1.50;;;21.10;84.10;;;;;;4940225;28;20532;-69
2024/04/02 12:12:42;;;;;;;3.42;1.20;;;21.00;84.00;;;;;;4941448;28;20535;-70
2024/04/02 12:15:10;;;;;;;3.00;1.70;;;20.90;84.20;;;;;;4939639;29;20028;-68
2024/04/02 12:17:37;;;;;;;3.55;1.30;;;21.00;84.40;;;;;;4939744;28;20027;-71
2024/04/02 12:20:05;;;;;;;2.42;1.00;;;20.90;84.30;;;;;;4940979;29;20096;-70
2024/04/02 12:22:32;;;;;;;5.18;1.65;;;20.90;84.80;;;;;;4939483;29;20019;-71
2024/04/02 12:25:00;;;;;;;3.35;1.40;;;20.90;85.10;;;;;;4940445;28;20118;-69
2024/04/02 12:27:29;;;;;;;3.78;1.50;;;20.80;85.00;;;;;;4940632;28;20027;-69
2024/04/02 12:29:59;;;;;;;3.97;1.42;;;20.80;85.40;;;;;;4939952;29;20032;-71
2024/04/02 12:32:32;;;;;;;4.05;1.15;;;20.80;85.60;;;;;;4939248;28;20038;-71
2024/04/02 12:35:00;;;;;;;4.72;1.60;;;20.70;85.50;;;;;;4939966;28;20034;-71
2024/04/02 12:37:27;;;;;;;4.03;1.40;;;20.70;85.00;;;;;;4940818;29;20098;-71
2024/04/02 12:39:55;;;;;;;3.10;1.67;;;20.70;85.10;;;;;;4939748;29;20388;-71
2024/04/02 12:42:22;;;;;;;3.08;1.38;;;20.80;85.90;;;;;;4938841;28;20031;-69
2024/04/02 12:44:50;;;;;;;3.40;1.10;;;20.70;85.60;;;;;;4939200;29;20488;-70
2024/04/02 12:47:18;;;;;;;5.65;1.55;;;20.70;86.70;;;;;;4938457;28;20114;-71
2024/04/02 12:49:45;;;;;;;4.15;1.35;;;20.60;86.00;;;;;;4935075;28;20048;-71
2024/04/02 12:52:13;;;;;;;2.78;1.20;;;20.60;86.60;;;;;;4934061;29;20045;-70
2024/04/02 12:54:40;;;;;;;4.45;1.60;;;20.50;85.90;;;;;;4939960;29;20435;-70
2024/04/02 12:57:07;;;;;;;6.32;1.50;;;20.60;85.90;;;;;;4940356;28;20444;-70
2024/04/02 12:59:34;;;;;;;4.50;1.45;;;20.50;86.70;;;;;;4945073;28;20024;-70